Archival Weather

Aeroparque Jorge Newbery

Buenos Aires, Argentina (SABE)

Report from: Tuesday, September 19, 2023 6:00 PM -03
Current time: Monday, June 17, 2024 7:09 AM -03

Current weather – Weather history – Daily summaries
Weather forecast

Temperature14.0°C (57.2°F)
Dew point10.0°C (50.0°F)
Winds 19 kts (9.8 m/s, 21.9 mph) East-Southeast (120°)
Visibility6.2 mi. (10 km)
Clouds Few clouds 1,800 ft. (549 m)
Ceiling: Overcast 3,800 ft. (1,158 m)
Altimeter30.12 in.Hg (1020 mB)
Relative humidity77 %
Density altitude-173 ft. (-53 m)
Remarks Corrected report
No significant changes expected in the next two hours
Flight conditions Visual Meteorological Conditions
Raw dataCOR SABE 192100Z 12019KT 9999 FEW018 OVC038 14/10 Q1020 NOSIG RMK PP000
An error has occurred. This application may no longer respond until reloaded. Reload 🗙